Aviation Digital Data Service (ADDS)

Output produced by METARs form (1657 UTC 23 September 2020)
found at http://aviationweather.gov/metar/data/
 
KDFW 231502Z 2315/2418 02007KT P6SM OVC007 
     FM231700 02007KT P6SM OVC012 
     FM232100 01009KT P6SM OVC025 
     FM240100 03007KT P6SM BKN035 
     FM240400 03005KT P6SM SCT020